Time;durP1;ratioP1;P1;durP2;ratioP2;P2;SDS_P1;SDS_P2;PMS_P1;PMS_P2;Temp;Humidity;BMP_temperature;BMP_pressure;BME280_temperature;BME280_humidity;BME280_pressure;Samples;Min_cycle;Max_cycle;Signal;HPM_P1;HPM_P2
2023/06/05 00:33:50;;;;;;;5.53;2.90;;;;;;;;;;5413819;23;20280;-86
2023/06/05 00:40:59;;;;;;;5.93;2.78;;;;;;;;;;4803678;29;20055;-85
2023/06/05 00:44:31;;;;;;;;;;;;;;;;;;;;;
2023/06/05 00:56:57;;;;;;;6.03;2.45;;;;;;;;;;4970547;28;20081;-85
2023/06/05 05:02:02;;;;;;;;;;;;;;;;;;;;;
2023/06/05 05:05:18;;;;;;;;;;;;;;;;;;;;;
2023/06/05 05:08:43;;;;;;;4.88;2.17;;;;;;;;;;4941071;28;20069;-79
2023/06/05 05:11:27;;;;;;;;;;;;;;;;;;;;;
2023/06/05 05:14:46;;;;;;;5.30;2.00;;;;;;;;;;4867836;29;20247;-85
2023/06/05 05:20:46;;;;;;;8.00;2.15;;;;;;;;;;4857875;29;20041;-83
2023/06/05 05:23:36;;;;;;;4.95;2.13;;;;;;;;;;4783379;29;20057;-83
2023/06/05 05:27:05;;;;;;;;;;;;;;;;;;;;;
2023/06/05 05:29:42;;;;;;;5.45;1.90;;;;;;;;;;4924259;29;20052;-82
2023/06/05 05:32:24;;;;;;;5.10;2.30;;;;;;;;;;4937615;28;20047;-84
2023/06/05 05:35:11;;;;;;;5.30;2.22;;;;;;;;;;4920364;29;20102;-82
2023/06/05 05:37:56;;;;;;;5.82;2.10;;;;;;;;;;4951083;28;20065;-84
2023/06/05 05:41:09;;;;;;;6.22;2.50;;;;;;;;;;4963549;28;20054;-84
2023/06/05 05:46:31;;;;;;;5.60;2.40;;;;;;;;;;4950958;28;19926;-84
2023/06/05 05:52:38;;;;;;;6.60;2.78;;;;;;;;;;4952509;28;20083;-83
2023/06/05 05:55:30;;;;;;;4.65;2.10;;;;;;;;;;4957519;28;20054;-82
2023/06/05 05:58:29;;;;;;;5.63;2.50;;;;;;;;;;4939742;28;20462;-82
2023/06/05 06:01:13;;;;;;;7.28;3.10;;;;;;;;;;4954509;28;20137;-81
2023/06/05 06:04:16;;;;;;;6.57;3.08;;;;;;;;;;4936890;28;20054;-83
2023/06/05 06:06:57;;;;;;;;;;;;;;;;;;;;;
2023/06/05 06:09:58;;;;;;;7.20;3.97;;;;;;;;;;4955522;28;20109;-83
2023/06/05 06:13:01;;;;;;;5.60;2.97;;;;;;;;;;4919981;28;20658;-82
2023/06/05 06:15:55;;;;;;;;;;;;;;;;;;;;;
2023/06/05 06:19:02;;;;;;;;;;;;;;;;;;;;;
2023/06/05 06:25:15;;;;;;;7.63;2.95;;;;;;;;;;4966318;28;20353;-82
2023/06/05 06:28:07;;;;;;;;;;;;;;;;;;;;;
2023/06/05 06:31:12;;;;;;;7.13;2.90;;;;;;;;;;4949581;28;20523;-83
2023/06/05 06:33:46;;;;;;;6.95;2.90;;;;;;;;;;4929908;29;20066;-83
2023/06/05 06:36:17;;;;;;;7.30;3.05;;;;;;;;;;4910231;28;20050;-83
2023/06/05 06:39:09;;;;;;;8.05;3.72;;;;;;;;;;4932754;28;20381;-84
2023/06/05 06:41:57;;;;;;;6.32;2.97;;;;;;;;;;4942183;28;20101;-83
2023/06/05 06:48:06;;;;;;;9.30;3.53;;;;;;;;;;4927003;28;20047;-83
2023/06/05 06:51:06;;;;;;;7.32;2.97;;;;;;;;;;4965733;28;20047;-83
2023/06/05 06:53:50;;;;;;;6.13;2.95;;;;;;;;;;4913358;29;20598;-82
2023/06/05 07:02:48;;;;;;;9.15;3.33;;;;;;;;;;4848681;29;20044;-83
2023/06/05 07:05:30;;;;;;;6.47;3.40;;;;;;;;;;4894386;28;20752;-83
2023/06/05 07:08:44;;;;;;;;;;;;;;;;;;;;;
2023/06/05 07:11:32;;;;;;;8.07;3.78;;;;;;;;;;4955053;28;20423;-83
2023/06/05 07:17:54;;;;;;;6.78;3.50;;;;;;;;;;4945971;28;20090;-82
2023/06/05 07:20:45;;;;;;;6.85;3.40;;;;;;;;;;4919049;29;20066;-84
2023/06/05 07:23:18;;;;;;;6.07;3.10;;;;;;;;;;4904097;28;20235;-83
2023/06/05 07:26:08;;;;;;;;;;;;;;;;;;;;;
2023/06/05 07:29:11;;;;;;;5.82;2.50;;;;;;;;;;4970818;28;20118;-81
2023/06/05 07:32:16;;;;;;;5.88;2.90;;;;;;;;;;4936055;28;20460;-83
2023/06/05 07:34:51;;;;;;;5.90;3.10;;;;;;;;;;4855227;29;20116;-82
2023/06/05 07:37:44;;;;;;;6.63;2.92;;;;;;;;;;4925522;29;20180;-83
2023/06/05 07:47:00;;;;;;;6.82;3.10;;;;;;;;;;4912047;29;20079;-83
2023/06/05 07:49:41;;;;;;;8.95;3.10;;;;;;;;;;4929155;29;20043;-84
2023/06/05 07:58:44;;;;;;;6.53;3.25;;;;;;;;;;4904579;29;20052;-81
2023/06/05 08:01:21;;;;;;;5.93;2.60;;;;;;;;;;4931291;23;20131;-60
2023/06/05 08:03:47;;;;;;;5.63;2.60;;;;;;;;;;4952622;28;20058;-58
2023/06/05 08:06:13;;;;;;;6.25;3.28;;;;;;;;;;4939811;28;20476;-59
2023/06/05 08:08:39;;;;;;;6.25;2.83;;;;;;;;;;4956477;28;20042;-58
2023/06/05 08:11:05;;;;;;;5.65;2.78;;;;;;;;;;4955920;28;20073;-60
2023/06/05 08:13:31;;;;;;;5.70;2.92;;;;;;;;;;4957027;28;20043;-59
2023/06/05 08:15:57;;;;;;;6.10;3.10;;;;;;;;;;4956825;28;20053;-60
2023/06/05 08:18:24;;;;;;;6.75;2.83;;;;;;;;;;4956211;28;20555;-59
2023/06/05 08:20:50;;;;;;;6.95;3.30;;;;;;;;;;4956296;28;20034;-59
2023/06/05 08:23:16;;;;;;;7.03;3.08;;;;;;;;;;4954758;28;20515;-59
2023/06/05 08:25:43;;;;;;;6.25;2.72;;;;;;;;;;4956592;28;20154;-59
2023/06/05 08:28:09;;;;;;;6.45;3.38;;;;;;;;;;4956146;28;20501;-59
2023/06/05 08:30:35;;;;;;;7.78;3.33;;;;;;;;;;4956630;28;20042;-58
2023/06/05 08:33:02;;;;;;;8.80;3.55;;;;;;;;;;4955407;28;20035;-60
2023/06/05 08:35:28;;;;;;;5.88;3.40;;;;;;;;;;4939057;28;20073;-59
2023/06/05 08:37:55;;;;;;;7.28;3.47;;;;;;;;;;4939049;28;20046;-59
2023/06/05 08:40:21;;;;;;;7.63;4.03;;;;;;;;;;4956339;28;20088;-59
2023/06/05 08:42:47;;;;;;;8.73;3.20;;;;;;;;;;4955699;28;20582;-59
2023/06/05 08:45:14;;;;;;;7.07;3.30;;;;;;;;;;4960240;28;20413;-59
2023/06/05 08:47:41;;;;;;;6.13;3.42;;;;;;;;;;4943003;28;20058;-59
2023/06/05 08:50:08;;;;;;;6.97;3.70;;;;;;;;;;4959746;28;20113;-58
2023/06/05 08:52:35;;;;;;;6.85;3.33;;;;;;;;;;4959265;28;20524;-58
2023/06/05 08:55:02;;;;;;;7.15;3.30;;;;;;;;;;4960191;28;20170;-59
2023/06/05 08:57:28;;;;;;;7.68;3.63;;;;;;;;;;4959753;28;20054;-59
2023/06/05 08:59:54;;;;;;;6.55;3.65;;;;;;;;;;4959792;28;20781;-59
2023/06/05 09:02:21;;;;;;;6.90;3.58;;;;;;;;;;4958693;28;20788;-59
2023/06/05 09:04:49;;;;;;;7.45;3.67;;;;;;;;;;4960080;28;20378;-60
2023/06/05 09:07:15;;;;;;;6.95;3.80;;;;;;;;;;4960034;28;20444;-59
2023/06/05 09:09:43;;;;;;;6.57;3.95;;;;;;;;;;4960096;28;20039;-59
2023/06/05 09:12:09;;;;;;;6.82;3.65;;;;;;;;;;4958930;28;20442;-59
2023/06/05 09:14:36;;;;;;;7.63;3.78;;;;;;;;;;4960048;28;20472;-59
2023/06/05 09:17:02;;;;;;;7.78;3.72;;;;;;;;;;4959648;28;20398;-60
2023/06/05 09:19:38;;;;;;;6.47;3.50;;;;;;;;;;4959629;28;20133;-58
2023/06/05 09:22:06;;;;;;;6.82;3.72;;;;;;;;;;4959019;28;20046;-60
2023/06/05 09:24:32;;;;;;;9.57;3.97;;;;;;;;;;4959736;28;20449;-60
2023/06/05 09:27:03;;;;;;;6.22;3.22;;;;;;;;;;4960087;28;20399;-59
2023/06/05 09:29:37;;;;;;;6.07;3.22;;;;;;;;;;4958552;28;20097;-58
2023/06/05 09:32:05;;;;;;;5.80;3.08;;;;;;;;;;4941796;28;20051;-60
2023/06/05 09:34:33;;;;;;;7.53;3.53;;;;;;;;;;4959508;28;20394;-60
2023/06/05 09:37:01;;;;;;;6.63;3.38;;;;;;;;;;4959658;28;20130;-59
2023/06/05 09:39:27;;;;;;;7.18;3.30;;;;;;;;;;4959235;28;20042;-59
2023/06/05 09:41:57;;;;;;;5.63;2.63;;;;;;;;;;4941294;28;20061;-58
2023/06/05 09:44:24;;;;;;;6.68;3.15;;;;;;;;;;4959245;28;20050;-60
2023/06/05 09:46:54;;;;;;;5.97;3.17;;;;;;;;;;4959268;28;20039;-59
2023/06/05 09:49:21;;;;;;;6.75;3.58;;;;;;;;;;4959545;28;20043;-60
2023/06/05 09:51:47;;;;;;;8.00;3.70;;;;;;;;;;4957949;28;20038;-59
2023/06/05 09:54:14;;;;;;;6.53;3.58;;;;;;;;;;4941535;28;20147;-58
2023/06/05 09:56:41;;;;;;;6.43;3.10;;;;;;;;;;4941058;28;20405;-59
2023/06/05 09:59:11;;;;;;;5.82;3.17;;;;;;;;;;4941485;28;20360;-60
2023/06/05 10:01:37;;;;;;;7.70;3.47;;;;;;;;;;4958136;28;20042;-60
2023/06/05 10:04:07;;;;;;;6.55;3.35;;;;;;;;;;4958498;28;20058;-59
2023/06/05 10:06:34;;;;;;;7.40;3.15;;;;;;;;;;4941290;28;20054;-59
2023/06/05 10:09:00;;;;;;;6.45;3.25;;;;;;;;;;4958436;28;20031;-57
2023/06/05 10:11:26;;;;;;;6.53;3.40;;;;;;;;;;4957087;28;20334;-58
2023/06/05 10:13:53;;;;;;;7.47;4.05;;;;;;;;;;4958587;28;20042;-57
2023/06/05 10:16:19;;;;;;;7.50;3.22;;;;;;;;;;4958623;28;20219;-59
2023/06/05 10:18:46;;;;;;;8.25;3.58;;;;;;;;;;4958871;28;20129;-58
2023/06/05 10:21:15;;;;;;;5.72;2.92;;;;;;;;;;4940467;28;20109;-59
2023/06/05 10:23:43;;;;;;;5.50;3.00;;;;;;;;;;4958515;28;20133;-59
2023/06/05 10:26:25;;;;;;;5.30;3.17;;;;;;;;;;4958282;28;20531;-59
2023/06/05 10:28:57;;;;;;;6.20;3.13;;;;;;;;;;4958843;28;20042;-58
2023/06/05 10:31:30;;;;;;;5.47;2.67;;;;;;;;;;4957578;28;20097;-58
2023/06/05 10:34:03;;;;;;;7.35;3.83;;;;;;;;;;4957323;28;20543;-60
2023/06/05 10:36:48;;;;;;;7.07;3.17;;;;;;;;;;4940834;28;20263;-60
2023/06/05 10:39:15;;;;;;;6.50;3.08;;;;;;;;;;4940842;28;20640;-59
2023/06/05 10:41:41;;;;;;;6.10;3.70;;;;;;;;;;4957750;28;20051;-60
2023/06/05 10:44:07;;;;;;;9.43;3.70;;;;;;;;;;4957809;28;20061;-58
2023/06/05 10:46:35;;;;;;;6.80;3.72;;;;;;;;;;4957810;28;20053;-60
2023/06/05 10:49:11;;;;;;;5.97;3.13;;;;;;;;;;4958000;28;20046;-59
2023/06/05 10:51:37;;;;;;;6.13;2.92;;;;;;;;;;4956752;28;20035;-60
2023/06/05 10:54:07;;;;;;;6.13;3.33;;;;;;;;;;4957619;28;20564;-59
2023/06/05 10:57:05;;;;;;;6.10;3.22;;;;;;;;;;4957708;28;20449;-58
2023/06/05 10:59:38;;;;;;;7.80;4.28;;;;;;;;;;4957938;28;20050;-58
2023/06/05 11:02:11;;;;;;;6.72;3.13;;;;;;;;;;4956705;28;20042;-60
2023/06/05 11:04:46;;;;;;;7.13;3.38;;;;;;;;;;4957440;28;20050;-58
2023/06/05 11:07:20;;;;;;;6.63;3.20;;;;;;;;;;4957544;28;20043;-58
2023/06/05 11:10:04;;;;;;;6.70;3.20;;;;;;;;;;4957402;28;20049;-59
2023/06/05 11:12:42;;;;;;;5.70;3.25;;;;;;;;;;4955078;28;20382;-59
2023/06/05 11:15:15;;;;;;;6.13;3.13;;;;;;;;;;4940052;28;20310;-59
2023/06/05 11:17:46;;;;;;;8.73;4.47;;;;;;;;;;4949962;28;20038;-58
2023/06/05 11:20:24;;;;;;;6.32;3.30;;;;;;;;;;4957530;28;20356;-58
2023/06/05 11:22:53;;;;;;;7.47;3.70;;;;;;;;;;4950055;28;20045;-59
2023/06/05 11:25:29;;;;;;;7.45;2.95;;;;;;;;;;4956996;28;20046;-58
2023/06/05 11:27:59;;;;;;;6.00;3.13;;;;;;;;;;4951223;28;20366;-58
2023/06/05 11:30:31;;;;;;;6.70;3.13;;;;;;;;;;4939843;28;20050;-58
2023/06/05 11:32:58;;;;;;;6.25;3.15;;;;;;;;;;4950828;28;20042;-57
2023/06/05 11:35:30;;;;;;;6.40;3.38;;;;;;;;;;4955714;28;20046;-58
2023/06/05 11:38:13;;;;;;;6.78;3.58;;;;;;;;;;4957340;28;20101;-57
2023/06/05 11:40:39;;;;;;;6.88;3.45;;;;;;;;;;4956621;28;20050;-58
2023/06/05 11:43:06;;;;;;;6.53;3.63;;;;;;;;;;4938835;28;20125;-58
2023/06/05 11:45:37;;;;;;;8.43;3.70;;;;;;;;;;4939773;28;20108;-58
2023/06/05 11:48:06;;;;;;;6.68;3.75;;;;;;;;;;4957290;28;20043;-59
2023/06/05 11:50:32;;;;;;;5.88;3.47;;;;;;;;;;4957259;28;20042;-59
2023/06/05 11:53:08;;;;;;;7.22;3.83;;;;;;;;;;4954627;28;20511;-58
2023/06/05 11:58:22;;;;;;;8.95;4.40;;;;;;;;;;4956937;28;20062;-58
2023/06/05 12:00:49;;;;;;;8.27;4.88;;;;;;;;;;4939625;28;20521;-58
2023/06/05 12:03:21;;;;;;;6.60;3.88;;;;;;;;;;4955911;28;20097;-58
2023/06/05 12:05:48;;;;;;;6.70;4.00;;;;;;;;;;4957167;28;20057;-57
2023/06/05 12:08:32;;;;;;;7.22;4.20;;;;;;;;;;4939495;28;20081;-58
2023/06/05 12:10:58;;;;;;;8.23;3.92;;;;;;;;;;4951331;28;20038;-58
2023/06/05 12:13:43;;;;;;;9.25;4.07;;;;;;;;;;4955701;28;20748;-58
2023/06/05 12:16:09;;;;;;;6.07;3.50;;;;;;;;;;4952262;28;20046;-58
2023/06/05 12:18:35;;;;;;;7.05;4.05;;;;;;;;;;4955679;28;20393;-58
2023/06/05 12:21:02;;;;;;;6.63;3.28;;;;;;;;;;4956830;28;20074;-59
2023/06/05 12:23:32;;;;;;;5.88;3.30;;;;;;;;;;4955844;28;20053;-59
2023/06/05 12:26:04;;;;;;;7.05;3.65;;;;;;;;;;4956689;28;20043;-59
2023/06/05 12:28:31;;;;;;;7.68;3.75;;;;;;;;;;4956613;28;21132;-59
2023/06/05 12:30:58;;;;;;;6.10;3.55;;;;;;;;;;4956234;28;20035;-59
2023/06/05 12:33:24;;;;;;;7.40;3.83;;;;;;;;;;4955345;28;20556;-58
2023/06/05 12:36:03;;;;;;;6.60;4.03;;;;;;;;;;4956641;28;20043;-60
2023/06/05 12:38:29;;;;;;;6.65;3.90;;;;;;;;;;4954528;28;20053;-58
2023/06/05 12:40:57;;;;;;;6.28;3.40;;;;;;;;;;4956378;28;20047;-60
2023/06/05 12:43:23;;;;;;;7.35;4.30;;;;;;;;;;4955561;28;20570;-59
2023/06/05 12:45:50;;;;;;;7.80;4.05;;;;;;;;;;4956167;28;20057;-60
2023/06/05 12:48:16;;;;;;;6.50;3.80;;;;;;;;;;4956321;28;20124;-59
2023/06/05 12:50:44;;;;;;;7.28;4.10;;;;;;;;;;4956138;28;20074;-59
2023/06/05 12:53:10;;;;;;;6.80;3.95;;;31.90;99.90;;;;;;4955305;28;20613;-60
2023/06/05 12:55:35;;;;;;;5.00;2.70;;;33.30;99.90;;;;;;4956215;28;20051;-59
2023/06/05 12:58:01;;;;;;;6.63;3.97;;;34.50;99.90;;;;;;4956824;28;20410;-59
2023/06/05 13:00:27;;;;;;;7.88;4.90;;;36.30;99.90;;;;;;4956784;28;20151;-59
2023/06/05 13:02:52;;;;;;;7.15;4.43;;;36.80;99.90;;;;;;4955161;28;20057;-59
2023/06/05 13:05:18;;;;;;;7.47;4.53;;;37.10;99.90;;;;;;4956157;28;20372;-60
2023/06/05 13:07:44;;;;;;;6.35;3.88;;;37.80;99.90;;;;;;4956066;28;20783;-59
2023/06/05 13:10:11;;;;;;;9.73;4.63;;;37.80;99.90;;;;;;4956128;28;20039;-60
2023/06/05 13:12:36;;;;;;;7.45;5.05;;;38.20;94.50;;;;;;4954993;28;20134;-59
2023/06/05 13:15:06;;;;;;;7.15;4.45;;;37.30;96.10;;;;;;4952869;28;20488;-59
2023/06/05 13:17:34;;;;;;;7.63;4.47;;;37.50;95.30;;;;;;4955982;28;20106;-58
2023/06/05 13:20:00;;;;;;;6.07;3.83;;;37.90;92.10;;;;;;4954755;28;20535;-58
2023/06/05 13:22:25;;;;;;;7.40;4.82;;;38.60;88.60;;;;;;4955087;28;20035;-59
2023/06/05 13:24:51;;;;;;;8.27;5.15;;;39.20;80.50;;;;;;4955444;28;20049;-59
2023/06/05 13:27:18;;;;;;;8.13;3.83;;;39.60;72.30;;;;;;4938751;28;20098;-59
2023/06/05 13:29:44;;;;;;;7.57;3.95;;;40.20;66.40;;;;;;4955784;28;20371;-60
2023/06/05 13:32:10;;;;;;;5.88;3.83;;;40.60;62.30;;;;;;4958881;28;20102;-60
2023/06/05 13:34:36;;;;;;;7.32;4.18;;;;;;;;;;4959500;28;20475;-60
2023/06/05 13:37:02;;;;;;;5.75;3.60;;;41.20;45.50;;;;;;4959563;28;20046;-60
2023/06/05 13:39:28;;;;;;;6.50;4.13;;;40.90;42.50;;;;;;4959029;28;20065;-60
2023/06/05 13:41:55;;;;;;;7.22;4.40;;;41.10;38.10;;;;;;4958207;28;20039;-58
2023/06/05 13:44:20;;;;;;;7.03;4.13;;;41.20;36.50;;;;;;4959223;28;20050;-59
2023/06/05 13:46:46;;;;;;;6.38;4.30;;;40.80;28.00;;;;;;4958547;28;20035;-58
2023/06/05 13:49:12;;;;;;;6.90;4.50;;;40.10;30.30;;;;;;4959579;28;20098;-59
2023/06/05 13:51:38;;;;;;;6.53;4.30;;;40.30;28.80;;;;;;4940362;28;20166;-59
2023/06/05 13:54:05;;;;;;;6.57;3.97;;;40.70;22.90;;;;;;4959345;28;20349;-58
2023/06/05 13:56:30;;;;;;;6.65;4.20;;;40.90;25.00;;;;;;4941682;28;20133;-58
2023/06/05 13:58:57;;;;;;;6.90;4.35;;;41.40;19.20;;;;;;4958775;28;20496;-59
2023/06/05 14:01:23;;;;;;;5.75;3.80;;;41.70;12.70;;;;;;4958278;28;20413;-60
2023/06/05 14:03:49;;;;;;;6.25;3.80;;;41.30;8.20;;;;;;4957963;28;20035;-59
2023/06/05 14:06:16;;;;;;;7.53;4.68;;;41.70;12.50;;;;;;4941575;28;20058;-59
2023/06/05 14:08:42;;;;;;;7.00;4.22;;;41.70;5.80;;;;;;4941242;28;20465;-59
2023/06/05 14:11:10;;;;;;;8.15;4.68;;;;;;;;;;4940650;28;20456;-59
2023/06/05 14:13:36;;;;;;;6.53;4.43;;;42.10;1.00;;;;;;4958190;28;20058;-59
2023/06/05 14:16:03;;;;;;;7.55;4.28;;;42.10;10.80;;;;;;4958857;28;20042;-58
2023/06/05 14:18:29;;;;;;;8.07;4.38;;;41.50;8.40;;;;;;4940621;28;20070;-59
2023/06/05 14:20:55;;;;;;;6.30;3.72;;;41.70;4.10;;;;;;4957814;28;20118;-59
2023/06/05 14:23:23;;;;;;;7.60;4.43;;;40.80;1.00;;;;;;4957799;28;20154;-58
2023/06/05 14:25:51;;;;;;;7.07;4.45;;;40.50;1.00;;;;;;4958056;28;20051;-58
2023/06/05 14:28:17;;;;;;;7.65;4.85;;;40.60;1.00;;;;;;4958615;28;20121;-60
2023/06/05 14:30:43;;;;;;;6.85;4.05;;;41.00;1.00;;;;;;4958342;28;20113;-60
2023/06/05 14:33:10;;;;;;;6.47;4.00;;;41.30;1.00;;;;;;4957194;28;20532;-59
2023/06/05 14:35:36;;;;;;;7.60;4.18;;;41.10;1.00;;;;;;4956508;28;20133;-59
2023/06/05 14:38:01;;;;;;;6.20;3.75;;;41.50;1.00;;;;;;4958550;28;20109;-57
2023/06/05 14:40:27;;;;;;;6.82;4.30;;;41.10;1.00;;;;;;4958029;28;20047;-59
2023/06/05 14:42:53;;;;;;;6.88;4.40;;;41.90;1.00;;;;;;4956971;28;20031;-58
2023/06/05 14:45:18;;;;;;;6.28;3.25;;;41.80;1.00;;;;;;4958078;28;20084;-59
2023/06/05 14:47:44;;;;;;;6.82;3.80;;;42.10;1.00;;;;;;4957669;28;20078;-58
2023/06/05 14:50:10;;;;;;;5.60;3.80;;;42.30;1.00;;;;;;4958275;28;20399;-58
2023/06/05 14:52:36;;;;;;;6.03;3.78;;;42.70;1.00;;;;;;4958030;28;20180;-59
2023/06/05 14:55:03;;;;;;;6.22;3.90;;;42.60;1.00;;;;;;4958378;28;20258;-58
2023/06/05 14:57:28;;;;;;;6.50;3.90;;;43.10;1.00;;;;;;4958455;28;20051;-59
2023/06/05 14:59:54;;;;;;;6.38;4.15;;;44.00;1.00;;;;;;4940420;28;20081;-60
2023/06/05 15:02:22;;;;;;;6.07;3.75;;;44.30;1.00;;;;;;4956958;28;20358;-58
2023/06/05 15:04:51;;;;;;;6.45;3.60;;;44.40;1.00;;;;;;4940087;28;20504;-59
2023/06/05 15:07:20;;;;;;;6.18;3.70;;;44.30;1.00;;;;;;4957803;28;20068;-59
2023/06/05 15:09:46;;;;;;;6.63;3.80;;;44.50;1.00;;;;;;4940467;28;20049;-59
2023/06/05 15:12:12;;;;;;;5.78;3.42;;;44.60;1.00;;;;;;4957039;28;20118;-59
2023/06/05 15:14:38;;;;;;;6.32;3.42;;;45.20;1.00;;;;;;4958320;28;20120;-59
2023/06/05 15:17:04;;;;;;;7.05;3.67;;;44.80;1.00;;;;;;4957807;28;20053;-60
2023/06/05 15:19:30;;;;;;;7.68;3.72;;;44.70;1.00;;;;;;4957799;28;20054;-59
2023/06/05 15:21:55;;;;;;;6.70;3.72;;;44.90;1.00;;;;;;4939570;28;20061;-59
2023/06/05 15:24:22;;;;;;;6.10;3.45;;;;;;;;;;4957651;28;20125;-59
2023/06/05 15:26:48;;;;;;;5.93;3.67;;;45.00;1.00;;;;;;4937689;28;20043;-59
2023/06/05 15:29:14;;;;;;;5.97;3.47;;;44.60;1.00;;;;;;4954687;28;20049;-59
2023/06/05 15:31:40;;;;;;;6.55;4.10;;;44.30;1.00;;;;;;4955584;28;20638;-58
2023/06/05 15:34:05;;;;;;;6.38;3.75;;;44.10;1.00;;;;;;4955840;28;20428;-60
2023/06/05 15:36:31;;;;;;;6.13;4.22;;;43.90;1.00;;;;;;4956135;28;20050;-60
2023/06/05 15:38:57;;;;;;;7.28;3.63;;;43.80;1.00;;;;;;4939643;28;20469;-60
2023/06/05 15:41:23;;;;;;;5.70;3.50;;;43.40;1.00;;;;;;4938610;28;20082;-60
2023/06/05 15:43:49;;;;;;;6.72;3.60;;;43.20;1.00;;;;;;4956139;28;20045;-59
2023/06/05 15:46:15;;;;;;;5.75;3.55;;;43.30;1.00;;;;;;4939216;28;20516;-59
2023/06/05 15:48:41;;;;;;;7.80;4.38;;;43.30;1.00;;;;;;4939102;28;20130;-59
2023/06/05 15:51:06;;;;;;;6.18;3.47;;;42.80;1.00;;;;;;4938889;28;20145;-60
2023/06/05 15:53:34;;;;;;;5.95;3.42;;;42.20;1.00;;;;;;4946007;28;20039;-59
2023/06/05 15:56:01;;;;;;;6.07;3.78;;;42.50;1.00;;;;;;4951882;28;20042;-59
2023/06/05 15:58:27;;;;;;;6.03;3.58;;;41.70;1.00;;;;;;4940012;28;20050;-60
2023/06/05 16:00:52;;;;;;;5.45;2.90;;;41.80;1.00;;;;;;4952864;28;20061;-60
2023/06/05 16:03:19;;;;;;;5.57;3.40;;;41.40;1.00;;;;;;4950061;28;20516;-60
2023/06/05 16:05:45;;;;;;;6.97;3.80;;;41.10;1.00;;;;;;4955136;28;20046;-60
2023/06/05 16:08:11;;;;;;;6.68;4.50;;;41.00;1.00;;;;;;4958019;28;20121;-60
2023/06/05 16:10:37;;;;;;;7.43;4.53;;;40.90;1.00;;;;;;4951160;28;20134;-59
2023/06/05 16:13:03;;;;;;;6.50;4.10;;;40.50;1.00;;;;;;4953042;28;20126;-59
2023/06/05 16:15:28;;;;;;;7.47;4.22;;;39.90;1.00;;;;;;4935988;28;20055;-59
2023/06/05 16:17:54;;;;;;;6.50;4.22;;;38.80;1.00;;;;;;4951250;28;20528;-59
2023/06/05 16:22:50;;;;;;;7.75;4.25;;;39.00;1.00;;;;;;4934398;28;20050;-59
2023/06/05 16:25:16;;;;;;;7.43;3.72;;;38.70;1.00;;;;;;4942651;28;20122;-58
2023/06/05 16:27:41;;;;;;;6.40;3.58;;;38.20;1.00;;;;;;4927872;28;20056;-59
2023/06/05 16:30:08;;;;;;;5.90;3.55;;;37.90;1.20;;;;;;4919811;29;20047;-59
2023/06/05 16:32:34;;;;;;;6.65;3.50;;;37.30;3.70;;;;;;4934796;28;20114;-59
2023/06/05 16:35:02;;;;;;;6.57;3.92;;;37.10;3.90;;;;;;4915994;29;20047;-58
2023/06/05 16:37:33;;;;;;;10.25;3.30;;;36.80;10.70;;;;;;4907942;28;20351;-58
2023/06/05 16:40:02;;;;;;;5.75;3.20;;;;;;;;;;4856427;29;20558;-61
2023/06/05 16:44:58;;;;;;;6.35;3.35;;;;;;;;;;4904605;28;20302;-59
2023/06/05 16:47:24;;;;;;;6.22;3.10;;;;;;;;;;4895394;28;20403;-58
2023/06/05 16:49:51;;;;;;;5.85;2.80;;;;;;;;;;4901532;28;20499;-62
2023/06/05 16:57:24;;;;;;;7.25;2.90;;;34.50;1.90;;;;;;5300357;23;20326;-60
2023/06/05 17:05:03;;;;;;;7.00;2.40;;;;;;;;;;5380939;23;20554;-70
2023/06/05 17:09:59;;;;;;;5.38;2.25;;;;;;;;;;4960949;23;20051;-60
2023/06/05 17:12:33;;;;;;;5.38;2.58;;;;;;;;;;4940719;23;20055;-69
2023/06/05 17:15:34;;;;;;;5.10;2.40;;;;;;;;;;4933778;28;20517;-70
2023/06/05 17:18:11;;;;;;;5.90;2.72;;;;;;;;;;4827535;29;20081;-68
2023/06/05 17:20:58;;;;;;;5.05;2.47;;;;;;;;;;4841708;28;20423;-68
2023/06/05 17:23:32;;;;;;;5.70;2.90;;;;;;;;;;4956350;28;20399;-70
2023/06/05 17:26:04;;;;;;;5.50;3.03;;;;;;;;;;4958044;28;20062;-69
2023/06/05 17:35:54;;;;;;;7.32;3.13;;;;;;;;;;4886088;28;20202;-61
2023/06/05 17:38:21;;;;;;;6.18;3.10;;;;;;;;;;4900585;28;20051;-60
2023/06/05 17:40:51;;;;;;;8.30;3.13;;;;;;;;;;4882418;28;20309;-57
2023/06/05 17:43:18;;;;;;;5.88;2.92;;;;;;;;;;4873623;28;20049;-60
2023/06/05 17:45:44;;;;;;;6.00;3.13;;;;;;;;;;4937669;28;20085;-60
2023/06/05 17:48:10;;;;;;;9.20;3.30;;;;;;;;;;4955450;28;20051;-60
2023/06/05 17:50:36;;;;;;;7.10;2.85;;;;;;;;;;4940391;28;20519;-60
2023/06/05 17:53:03;;;;;;;6.82;3.03;;;;;;;;;;4936100;28;20108;-59
2023/06/05 17:55:29;;;;;;;6.18;3.30;;;;;;;;;;4946758;28;20126;-60
2023/06/05 17:57:56;;;;;;;8.40;3.85;;;;;;;;;;4954712;28;20149;-60
2023/06/05 18:00:23;;;;;;;5.70;2.90;;;;;;;;;;4934691;28;20516;-60
2023/06/05 18:02:49;;;;;;;6.88;3.10;;;;;;;;;;4949540;28;20053;-60
2023/06/05 18:05:16;;;;;;;7.53;3.20;;;;;;;;;;4935265;28;20082;-60
2023/06/05 18:07:42;;;;;;;6.97;3.67;;;;;;;;;;4949890;28;20043;-59
2023/06/05 18:10:09;;;;;;;6.82;3.35;;;;;;;;;;4938365;28;20093;-60
2023/06/05 18:12:35;;;;;;;6.72;3.60;;;;;;;;;;4945406;28;20470;-60
2023/06/05 18:15:01;;;;;;;9.40;3.50;;;;;;;;;;4937708;28;20047;-60
2023/06/05 18:17:31;;;;;;;6.28;3.10;;;;;;;;;;4954170;28;20366;-60
2023/06/05 18:19:57;;;;;;;7.18;2.92;;;;;;;;;;4954451;28;20449;-60
2023/06/05 18:22:23;;;;;;;6.53;3.17;;;;;;;;;;4934661;28;20062;-60
2023/06/05 18:24:50;;;;;;;6.47;3.25;;;;;;;;;;4930439;28;20070;-60
2023/06/05 18:27:16;;;;;;;6.72;3.13;;;;;;;;;;4953771;28;20050;-60
2023/06/05 18:29:42;;;;;;;7.03;3.20;;;;;;;;;;4955737;28;20339;-60
2023/06/05 18:32:08;;;;;;;6.20;3.30;;;;;;;;;;4953442;28;20058;-60
2023/06/05 18:34:38;;;;;;;6.68;3.60;;;;;;;;;;4956297;28;20046;-60
2023/06/05 18:37:04;;;;;;;7.53;3.67;;;;;;;;;;4949675;28;20448;-60
2023/06/05 18:39:30;;;;;;;7.85;3.33;;;;;;;;;;4955424;28;20044;-58
2023/06/05 18:41:56;;;;;;;7.63;2.97;;;;;;;;;;4949600;28;20042;-59
2023/06/05 18:44:22;;;;;;;6.57;3.10;;;;;;;;;;4955454;28;20043;-59
2023/06/05 18:46:49;;;;;;;6.88;3.40;;;;;;;;;;4950837;28;20050;-60
2023/06/05 18:49:15;;;;;;;9.45;3.92;;;;;;;;;;4954978;28;20046;-60
2023/06/05 18:51:41;;;;;;;8.05;3.72;;;;;;;;;;4936034;28;20575;-60
2023/06/05 18:54:07;;;;;;;7.70;3.10;;;;;;;;;;4954237;28;20375;-62
2023/06/05 18:56:33;;;;;;;6.75;3.03;;;;;;;;;;4921196;28;20058;-60
2023/06/05 18:58:59;;;;;;;6.70;3.25;;;;;;;;;;4954428;28;20046;-60
2023/06/05 19:01:25;;;;;;;7.60;3.20;;;;;;;;;;4953374;28;20100;-59
2023/06/05 19:03:51;;;;;;;7.43;3.22;;;;;;;;;;4936532;28;20492;-59
2023/06/05 19:06:18;;;;;;;8.52;3.40;;;;;;;;;;4934770;28;20126;-59
2023/06/05 19:08:46;;;;;;;11.95;3.85;;;;;;;;;;4937240;28;20122;-61
2023/06/05 19:11:12;;;;;;;7.70;3.33;;;;;;;;;;4945831;28;20065;-60
2023/06/05 19:13:39;;;;;;;7.30;3.20;;;;;;;;;;4953552;28;20446;-60
2023/06/05 19:16:05;;;;;;;7.75;3.20;;;;;;;;;;4953480;28;20039;-60
2023/06/05 19:18:31;;;;;;;8.18;4.30;;;;;;;;;;4954591;28;20572;-60
2023/06/05 19:20:57;;;;;;;9.13;3.45;;;;;;;;;;4953941;28;20471;-59
2023/06/05 19:23:23;;;;;;;7.82;3.40;;;;;;;;;;4953533;28;20043;-60
2023/06/05 19:25:50;;;;;;;8.70;3.45;;;;;;;;;;4934855;28;20042;-59
2023/06/05 19:28:16;;;;;;;7.68;3.88;;;;;;;;;;4919924;28;20583;-59
2023/06/05 19:30:42;;;;;;;8.07;4.00;;;;;;;;;;4946902;28;20077;-59
2023/06/05 19:33:08;;;;;;;8.23;3.67;;;;;;;;;;4934682;28;20302;-61
2023/06/05 19:35:34;;;;;;;9.68;3.72;;;;;;;;;;4945346;28;20046;-59
2023/06/05 19:38:04;;;;;;;7.22;4.07;;;;;;;;;;4931355;28;20058;-61
2023/06/05 19:40:31;;;;;;;7.50;3.60;;;;;;;;;;4889635;28;20078;-59
2023/06/05 19:42:58;;;;;;;7.70;3.85;;;;;;;;;;4918302;28;20468;-58
2023/06/05 19:45:24;;;;;;;8.63;4.68;;;;;;;;;;4953342;28;20058;-60
2023/06/05 19:47:50;;;;;;;9.48;4.15;;;;;;;;;;4946704;28;20279;-59
2023/06/05 19:50:18;;;;;;;11.23;4.60;;;;;;;;;;4953381;28;20461;-59
2023/06/05 19:52:44;;;;;;;12.55;4.78;;;;;;;;;;4949303;28;20051;-59
2023/06/05 19:55:10;;;;;;;9.65;4.63;;;;;;;;;;4953013;28;20051;-60
2023/06/05 19:57:36;;;;;;;9.43;4.20;;;;;;;;;;4951055;28;20487;-59
2023/06/05 20:00:02;;;;;;;10.05;3.95;;;;;;;;;;4953134;28;20204;-59
2023/06/05 20:02:28;;;;;;;9.98;4.65;;;;;;;;;;4950845;28;20512;-60
2023/06/05 20:04:54;;;;;;;8.45;4.32;;;;;;;;;;4952533;28;20038;-60
2023/06/05 20:07:22;;;;;;;11.52;5.22;;;;;;;;;;4947953;28;20051;-59
2023/06/05 20:09:48;;;;;;;9.70;4.50;;;;;;;;;;4934603;28;20050;-59
2023/06/05 20:12:14;;;;;;;9.15;4.63;;;;;;;;;;4945357;28;20856;-59
2023/06/05 20:14:40;;;;;;;8.88;4.30;;;;;;;;;;4935097;28;20925;-59
2023/06/05 20:17:07;;;;;;;11.70;4.22;;;;;;;;;;4932180;28;20046;-60
2023/06/05 20:19:33;;;;;;;9.30;4.40;;;;;;;;;;4936220;28;20061;-59
2023/06/05 20:22:04;;;;;;;9.32;4.30;;;;;;;;;;4946321;28;20464;-58
2023/06/05 20:24:31;;;;;;;9.30;4.47;;;;;;;;;;4934553;28;20116;-57
2023/06/05 20:26:57;;;;;;;9.80;4.65;;;;;;;;;;4953928;28;20544;-57
2023/06/05 20:29:24;;;;;;;8.38;4.63;;;;;;;;;;4942601;28;20039;-57
2023/06/05 20:31:50;;;;;;;8.95;4.20;;;;;;;;;;4952219;28;20270;-58
2023/06/05 20:34:16;;;;;;;8.00;4.82;;;;;;;;;;4953664;28;20056;-56
2023/06/05 20:36:44;;;;;;;10.77;4.80;;;;;;;;;;4952789;28;20042;-57
2023/06/05 20:39:16;;;;;;;10.27;4.53;;;;;;;;;;4948880;28;20469;-56
2023/06/05 20:41:49;;;;;;;12.27;4.70;;;;;;;;;;4957106;28;20046;-57